IGO7577 VOBL-VOMD
Flight info
| Callsign | IGO7577 |
|---|---|
| Flight time | 0h 40m |
| Altitude | 27000 |
| Route | AKTIM7B AKTIM J14 MDI |
| Aircraft | A21N/M-SDE2E3FGHIRWXY/LB1 |
Departure
| Time | 2026-05-04 14:31 |
|---|---|
| Airport | Kempegowda International Airport Bengaluru (VOBL) |
Arrival
| Time | 2026-05-04 15:11 |
|---|---|
| Airport | Madurai Airport (VOMD) |
| Time | Latitude | Longitude | Altitude | Speed | Heading |
|---|---|---|---|---|---|
| 2026-05-04 14:08 | 13.20172 | 77.70876 | 2970 ft | 0 kts | 180° |
| 2026-05-04 14:20 | 13.20175 | 77.70876 | 2971 ft | 2 kts | 181° |
| 2026-05-04 14:21 | 13.20205 | 77.70876 | 2970 ft | 2 kts | 180° |
| 2026-05-04 14:21 | 13.20215 | 77.70876 | 2970 ft | 2 kts | 181° |
| 2026-05-04 14:21 | 13.20229 | 77.70873 | 2970 ft | 2 kts | 141° |
| 2026-05-04 14:21 | 13.20239 | 77.70860 | 2970 ft | 2 kts | 110° |
| 2026-05-04 14:22 | 13.20241 | 77.70851 | 2970 ft | 1 kts | 91° |
| 2026-05-04 14:22 | 13.20241 | 77.70844 | 2970 ft | 0 kts | 89° |
| 2026-05-04 14:25 | 13.20241 | 77.70849 | 2970 ft | 1 kts | 90° |
| 2026-05-04 14:25 | 13.20241 | 77.70908 | 2969 ft | 6 kts | 90° |
| 2026-05-04 14:25 | 13.20241 | 77.70965 | 2967 ft | 9 kts | 90° |
| 2026-05-04 14:26 | 13.20240 | 77.71046 | 2965 ft | 12 kts | 91° |
| 2026-05-04 14:26 | 13.20239 | 77.71143 | 2962 ft | 15 kts | 90° |
| 2026-05-04 14:26 | 13.20241 | 77.71249 | 2960 ft | 11 kts | 70° |
| 2026-05-04 14:26 | 13.20326 | 77.71275 | 2955 ft | 15 kts | 1° |
| 2026-05-04 14:27 | 13.20453 | 77.71278 | 2946 ft | 20 kts | 1° |
| 2026-05-04 14:27 | 13.20524 | 77.71381 | 2939 ft | 20 kts | 86° |
| 2026-05-04 14:27 | 13.20522 | 77.71526 | 2939 ft | 20 kts | 92° |
| 2026-05-04 14:27 | 13.20518 | 77.71665 | 2940 ft | 19 kts | 91° |
| 2026-05-04 14:28 | 13.20514 | 77.71800 | 2940 ft | 18 kts | 87° |
| 2026-05-04 14:28 | 13.20517 | 77.71930 | 2940 ft | 18 kts | 91° |
| 2026-05-04 14:28 | 13.20515 | 77.72059 | 2939 ft | 18 kts | 91° |
| 2026-05-04 14:28 | 13.20516 | 77.72190 | 2937 ft | 12 kts | 90° |
| 2026-05-04 14:29 | 13.20557 | 77.72281 | 2933 ft | 10 kts | 11° |
| 2026-05-04 14:29 | 13.20684 | 77.72201 | 2930 ft | 13 kts | 274° |
| 2026-05-04 14:30 | 13.20686 | 77.72078 | 2932 ft | 38 kts | 270° |
| 2026-05-04 14:30 | 13.20687 | 77.71547 | 2929 ft | 110 kts | 271° |
| 2026-05-04 14:30 | 13.20716 | 77.69211 | 3271 ft | 194 kts | 269° |
| 2026-05-04 14:31 | 13.20814 | 77.67820 | 3756 ft | 207 kts | 277° |
| 2026-05-04 14:31 | 13.22053 | 77.64751 | 4605 ft | 257 kts | 309° |
| 2026-05-04 14:32 | 13.24317 | 77.62017 | 6221 ft | 254 kts | 309° |
| 2026-05-04 14:32 | 13.25084 | 77.60329 | 6466 ft | 275 kts | 280° |
| 2026-05-04 14:32 | 13.24816 | 77.58353 | 6848 ft | 289 kts | 246° |
| 2026-05-04 14:32 | 13.23525 | 77.56801 | 7332 ft | 295 kts | 213° |
| 2026-05-04 14:33 | 13.21572 | 77.56149 | 7862 ft | 298 kts | 182° |
| 2026-05-04 14:33 | 13.19493 | 77.56216 | 8414 ft | 300 kts | 175° |
| 2026-05-04 14:33 | 13.17390 | 77.56373 | 8934 ft | 305 kts | 175° |
| 2026-05-04 14:33 | 13.15239 | 77.56508 | 9494 ft | 309 kts | 177° |
| 2026-05-04 14:34 | 13.13083 | 77.56605 | 10073 ft | 312 kts | 178° |
| 2026-05-04 14:34 | 13.10894 | 77.56677 | 10496 ft | 322 kts | 179° |
| 2026-05-04 14:34 | 13.08562 | 77.56734 | 10758 ft | 337 kts | 179° |
| 2026-05-04 14:34 | 13.06166 | 77.56780 | 11016 ft | 352 kts | 179° |
| 2026-05-04 14:35 | 13.03666 | 77.56822 | 11396 ft | 361 kts | 179° |
| 2026-05-04 14:35 | 13.01138 | 77.56862 | 11982 ft | 363 kts | 179° |
| 2026-05-04 14:35 | 12.98614 | 77.56901 | 12579 ft | 364 kts | 179° |
| 2026-05-04 14:35 | 12.96075 | 77.56940 | 13141 ft | 367 kts | 180° |
| 2026-05-04 14:36 | 12.93516 | 77.56979 | 13705 ft | 369 kts | 180° |
| 2026-05-04 14:36 | 12.90916 | 77.57016 | 14251 ft | 370 kts | 180° |
| 2026-05-04 14:36 | 12.88346 | 77.57054 | 14793 ft | 371 kts | 180° |
| 2026-05-04 14:36 | 12.85756 | 77.57091 | 15318 ft | 373 kts | 179° |
| 2026-05-04 14:37 | 12.83134 | 77.57129 | 15804 ft | 375 kts | 179° |
| 2026-05-04 14:37 | 12.80542 | 77.57166 | 16271 ft | 376 kts | 179° |
| 2026-05-04 14:37 | 12.77884 | 77.57203 | 16689 ft | 380 kts | 179° |
| 2026-05-04 14:37 | 12.75220 | 77.57242 | 17113 ft | 382 kts | 178° |
| 2026-05-04 14:38 | 12.72548 | 77.57283 | 17525 ft | 385 kts | 179° |
| 2026-05-04 14:38 | 12.69861 | 77.57326 | 17921 ft | 387 kts | 179° |
| 2026-05-04 14:38 | 12.67159 | 77.57371 | 18306 ft | 390 kts | 179° |
| 2026-05-04 14:38 | 12.64440 | 77.57414 | 18700 ft | 391 kts | 180° |
| 2026-05-04 14:39 | 12.61699 | 77.57455 | 19121 ft | 392 kts | 180° |
| 2026-05-04 14:39 | 12.58972 | 77.57493 | 19534 ft | 392 kts | 180° |
| 2026-05-04 14:39 | 12.56233 | 77.57531 | 19927 ft | 393 kts | 180° |
| 2026-05-04 14:40 | 12.50760 | 77.57609 | 20656 ft | 395 kts | 180° |
| 2026-05-04 14:40 | 12.48003 | 77.57649 | 20992 ft | 396 kts | 180° |
| 2026-05-04 14:40 | 12.45218 | 77.57688 | 21184 ft | 402 kts | 180° |
| 2026-05-04 14:40 | 12.42362 | 77.57731 | 21429 ft | 406 kts | 180° |
| 2026-05-04 14:41 | 12.39568 | 77.57772 | 21741 ft | 407 kts | 180° |
| 2026-05-04 14:41 | 12.36724 | 77.57813 | 22044 ft | 408 kts | 180° |
| 2026-05-04 14:41 | 12.30994 | 77.57896 | 22637 ft | 411 kts | 179° |
| 2026-05-04 14:42 | 12.25232 | 77.57980 | 23168 ft | 416 kts | 179° |
| 2026-05-04 14:42 | 12.22326 | 77.58022 | 23485 ft | 417 kts | 179° |
| 2026-05-04 14:42 | 12.19433 | 77.58065 | 23841 ft | 416 kts | 179° |
| 2026-05-04 14:43 | 12.16540 | 77.58108 | 24219 ft | 415 kts | 179° |
| 2026-05-04 14:43 | 12.13649 | 77.58149 | 24581 ft | 414 kts | 179° |
| 2026-05-04 14:43 | 12.10746 | 77.58192 | 24946 ft | 414 kts | 179° |
| 2026-05-04 14:43 | 12.07841 | 77.58264 | 25301 ft | 413 kts | 177° |
| 2026-05-04 14:44 | 12.04977 | 77.58488 | 25586 ft | 414 kts | 174° |
| 2026-05-04 14:44 | 12.02124 | 77.58878 | 25854 ft | 416 kts | 171° |
| 2026-05-04 14:44 | 11.99270 | 77.59322 | 26120 ft | 417 kts | 171° |
| 2026-05-04 14:44 | 11.96359 | 77.59780 | 26421 ft | 418 kts | 171° |
| 2026-05-04 14:45 | 11.93506 | 77.60229 | 26720 ft | 418 kts | 171° |
| 2026-05-04 14:45 | 11.90622 | 77.60682 | 26894 ft | 416 kts | 171° |
| 2026-05-04 14:45 | 11.87764 | 77.61129 | 26906 ft | 416 kts | 171° |
| 2026-05-04 14:45 | 11.84885 | 77.61577 | 26915 ft | 415 kts | 171° |
| 2026-05-04 14:46 | 11.82012 | 77.62026 | 26922 ft | 416 kts | 171° |
| 2026-05-04 14:46 | 11.79129 | 77.62475 | 26929 ft | 417 kts | 171° |
| 2026-05-04 14:46 | 11.76258 | 77.62923 | 26932 ft | 415 kts | 171° |
| 2026-05-04 14:46 | 11.73398 | 77.63370 | 26941 ft | 418 kts | 171° |
| 2026-05-04 14:47 | 11.70529 | 77.63818 | 26939 ft | 416 kts | 171° |
| 2026-05-04 14:47 | 11.67668 | 77.64265 | 26927 ft | 416 kts | 171° |
| 2026-05-04 14:47 | 11.64782 | 77.64715 | 26921 ft | 418 kts | 171° |
| 2026-05-04 14:47 | 11.61897 | 77.65164 | 26913 ft | 419 kts | 171° |
| 2026-05-04 14:48 | 11.58995 | 77.65617 | 26903 ft | 420 kts | 171° |
| 2026-05-04 14:48 | 11.56120 | 77.66065 | 26896 ft | 417 kts | 171° |
| 2026-05-04 14:48 | 11.53256 | 77.66511 | 26885 ft | 417 kts | 171° |
| 2026-05-04 14:48 | 11.50378 | 77.66959 | 26876 ft | 414 kts | 171° |
| 2026-05-04 14:49 | 11.47504 | 77.67405 | 26869 ft | 415 kts | 171° |
| 2026-05-04 14:49 | 11.44640 | 77.67851 | 26861 ft | 415 kts | 171° |
| 2026-05-04 14:49 | 11.41812 | 77.68291 | 26859 ft | 414 kts | 171° |
| 2026-05-04 14:49 | 11.38952 | 77.68736 | 26859 ft | 413 kts | 171° |
| 2026-05-04 14:50 | 11.36096 | 77.69181 | 26859 ft | 413 kts | 171° |
| 2026-05-04 14:50 | 11.33232 | 77.69627 | 26859 ft | 413 kts | 171° |
| 2026-05-04 14:50 | 11.30411 | 77.70065 | 26862 ft | 413 kts | 171° |
| 2026-05-04 14:50 | 11.27572 | 77.70506 | 26863 ft | 413 kts | 171° |
| 2026-05-04 14:51 | 11.24678 | 77.70956 | 26860 ft | 415 kts | 171° |
| 2026-05-04 14:51 | 11.21820 | 77.71401 | 26860 ft | 415 kts | 171° |
| 2026-05-04 14:51 | 11.18942 | 77.71847 | 26859 ft | 418 kts | 171° |
| 2026-05-04 14:51 | 11.16079 | 77.72293 | 26854 ft | 417 kts | 171° |
| 2026-05-04 14:52 | 11.13197 | 77.72740 | 26858 ft | 416 kts | 171° |
| 2026-05-04 14:52 | 11.10363 | 77.73180 | 26861 ft | 414 kts | 171° |
| 2026-05-04 14:52 | 11.07522 | 77.73621 | 26738 ft | 410 kts | 171° |
| 2026-05-04 14:52 | 11.04679 | 77.74061 | 26005 ft | 415 kts | 171° |
| 2026-05-04 14:53 | 11.01804 | 77.74508 | 24971 ft | 425 kts | 171° |
| 2026-05-04 14:53 | 10.98876 | 77.74963 | 24111 ft | 429 kts | 171° |
| 2026-05-04 14:53 | 10.95913 | 77.75422 | 23342 ft | 431 kts | 171° |
| 2026-05-04 14:53 | 10.92918 | 77.75887 | 22539 ft | 433 kts | 171° |
| 2026-05-04 14:54 | 10.89932 | 77.76312 | 21738 ft | 435 kts | 173° |
| 2026-05-04 14:54 | 10.86942 | 77.76676 | 21057 ft | 434 kts | 174° |
| 2026-05-04 14:54 | 10.83950 | 77.77025 | 20561 ft | 428 kts | 174° |
| 2026-05-04 14:54 | 10.80998 | 77.77367 | 20018 ft | 424 kts | 174° |
| 2026-05-04 14:55 | 10.78090 | 77.77708 | 19451 ft | 421 kts | 173° |
| 2026-05-04 14:55 | 10.75188 | 77.78052 | 18867 ft | 418 kts | 173° |
| 2026-05-04 14:55 | 10.72288 | 77.78399 | 18295 ft | 415 kts | 173° |
| 2026-05-04 14:55 | 10.69430 | 77.78741 | 17859 ft | 408 kts | 173° |
| 2026-05-04 14:56 | 10.66651 | 77.79075 | 17363 ft | 401 kts | 173° |
| 2026-05-04 14:56 | 10.63879 | 77.79408 | 16842 ft | 394 kts | 173° |
| 2026-05-04 14:56 | 10.61195 | 77.79731 | 16337 ft | 388 kts | 173° |
| 2026-05-04 14:56 | 10.58539 | 77.80050 | 15831 ft | 380 kts | 173° |
| 2026-05-04 14:57 | 10.55944 | 77.80361 | 15387 ft | 370 kts | 173° |
| 2026-05-04 14:57 | 10.53413 | 77.80666 | 14868 ft | 363 kts | 172° |
| 2026-05-04 14:57 | 10.50904 | 77.80968 | 14417 ft | 353 kts | 172° |
| 2026-05-04 14:57 | 10.48520 | 77.81255 | 13958 ft | 345 kts | 172° |
| 2026-05-04 14:58 | 10.46153 | 77.81540 | 13499 ft | 338 kts | 172° |
| 2026-05-04 14:58 | 10.43817 | 77.81823 | 13019 ft | 331 kts | 172° |
| 2026-05-04 14:58 | 10.41559 | 77.82095 | 12522 ft | 326 kts | 172° |
| 2026-05-04 14:58 | 10.40052 | 77.82278 | 12190 ft | 322 kts | 172° |
| 2026-05-04 14:59 | 10.37124 | 77.82629 | 11576 ft | 315 kts | 172° |
| 2026-05-04 14:59 | 10.34965 | 77.82890 | 11118 ft | 309 kts | 171° |
| 2026-05-04 14:59 | 10.30738 | 77.83401 | 10383 ft | 296 kts | 171° |
| 2026-05-04 15:00 | 10.28711 | 77.83643 | 10246 ft | 291 kts | 171° |
| 2026-05-04 15:00 | 10.26692 | 77.83886 | 10138 ft | 290 kts | 171° |
| 2026-05-04 15:00 | 10.24697 | 77.84127 | 10044 ft | 289 kts | 171° |
| 2026-05-04 15:01 | 10.20731 | 77.84605 | 9600 ft | 280 kts | 171° |
| 2026-05-04 15:01 | 10.18807 | 77.84837 | 9256 ft | 277 kts | 171° |
| 2026-05-04 15:01 | 10.16899 | 77.85066 | 8940 ft | 275 kts | 171° |
| 2026-05-04 15:01 | 10.15007 | 77.85295 | 8659 ft | 270 kts | 171° |
| 2026-05-04 15:02 | 10.13143 | 77.85520 | 8364 ft | 265 kts | 171° |
| 2026-05-04 15:02 | 10.11324 | 77.85739 | 8078 ft | 261 kts | 172° |
| 2026-05-04 15:02 | 10.09529 | 77.85957 | 7797 ft | 257 kts | 172° |
| 2026-05-04 15:02 | 10.07764 | 77.86169 | 7489 ft | 254 kts | 172° |
| 2026-05-04 15:03 | 10.05993 | 77.86384 | 7169 ft | 252 kts | 172° |
| 2026-05-04 15:03 | 10.04261 | 77.86590 | 6831 ft | 251 kts | 173° |
| 2026-05-04 15:03 | 10.02522 | 77.86800 | 6511 ft | 248 kts | 173° |
| 2026-05-04 15:03 | 10.00829 | 77.87006 | 6226 ft | 245 kts | 173° |
| 2026-05-04 15:04 | 9.99138 | 77.87209 | 5947 ft | 242 kts | 174° |
| 2026-05-04 15:04 | 9.97474 | 77.87408 | 5779 ft | 231 kts | 174° |
| 2026-05-04 15:04 | 9.95914 | 77.87594 | 5515 ft | 224 kts | 174° |
| 2026-05-04 15:04 | 9.94347 | 77.87781 | 5031 ft | 227 kts | 174° |
| 2026-05-04 15:05 | 9.92769 | 77.87966 | 4699 ft | 229 kts | 174° |
| 2026-05-04 15:05 | 9.91185 | 77.88158 | 4389 ft | 228 kts | 174° |
| 2026-05-04 15:05 | 9.89593 | 77.88348 | 4097 ft | 225 kts | 175° |
| 2026-05-04 15:05 | 9.88067 | 77.88531 | 3800 ft | 218 kts | 175° |
| 2026-05-04 15:06 | 9.86567 | 77.88711 | 3645 ft | 215 kts | 175° |
| 2026-05-04 15:06 | 9.85074 | 77.88887 | 3605 ft | 216 kts | 175° |
| 2026-05-04 15:06 | 9.83596 | 77.89229 | 3501 ft | 218 kts | 156° |
| 2026-05-04 15:07 | 9.82081 | 77.91767 | 3278 ft | 224 kts | 91° |
| 2026-05-04 15:07 | 9.82177 | 77.93328 | 3210 ft | 220 kts | 85° |
| 2026-05-04 15:07 | 9.82325 | 77.94811 | 2987 ft | 203 kts | 84° |
| 2026-05-04 15:07 | 9.82456 | 77.96172 | 2821 ft | 181 kts | 84° |
| 2026-05-04 15:08 | 9.82561 | 77.97390 | 2533 ft | 170 kts | 84° |
| 2026-05-04 15:08 | 9.82652 | 77.98543 | 2238 ft | 159 kts | 83° |
| 2026-05-04 15:08 | 9.82738 | 77.99670 | 2052 ft | 159 kts | 83° |
| 2026-05-04 15:08 | 9.82822 | 78.00776 | 1852 ft | 158 kts | 83° |
| 2026-05-04 15:09 | 9.82905 | 78.01878 | 1666 ft | 157 kts | 83° |
| 2026-05-04 15:09 | 9.82989 | 78.02985 | 1484 ft | 155 kts | 83° |
| 2026-05-04 15:09 | 9.83080 | 78.04060 | 1254 ft | 154 kts | 82° |
| 2026-05-04 15:10 | 9.83259 | 78.06190 | 797 ft | 149 kts | 83° |
| 2026-05-04 15:10 | 9.83329 | 78.07234 | 624 ft | 148 kts | 84° |
| 2026-05-04 15:10 | 9.83457 | 78.09200 | 456 ft | 105 kts | 87° |
| 2026-05-04 15:11 | 9.83479 | 78.09708 | 446 ft | 40 kts | 91° |
| 2026-05-04 15:11 | 9.83497 | 78.09951 | 441 ft | 27 kts | 86° |
| 2026-05-04 15:11 | 9.83501 | 78.10091 | 440 ft | 6 kts | 88° |
| 2026-05-04 15:11 | 9.83501 | 78.10094 | 440 ft | 0 kts | 89° |